Arbuckle, California
Current Conditions -  °F | °C
As of 10:53 PM on Saturday 25 Oct 2014 (Local Time) from KMYV Reporting Station
Overcast Overcast  
Wind Chill: 60°   Ceiling: 11000
Heat Index: 60°   Visibility: 10mi
Dew Point: 54°   Wind: 10mph
Humidity: 80%   Direction: 180°S
Pressure: 30.1"   Gusts: NA
Location:  39.02°N, 122.06°W
Report Text: KMYV 260553Z AUTO 18009KT 10SM OVC110 16/12 A3010 RMK AO2 SLP196 60000 T01560122 10206 20150 51017 $
Loading
Personal Weather Stations






























Interactive Weather Map
Tropical Storm Tracking
New forecast layout! Learn more

10-Day Weather Forecast

Advertisements
Track Severe Weather on mobile